Time;durP1;ratioP1;P1;durP2;ratioP2;P2;SDS_P1;SDS_P2;PMS_P1;PMS_P2;Temp;Humidity;BMP_temperature;BMP_pressure;BME280_temperature;BME280_humidity;BME280_pressure;Samples;Min_cycle;Max_cycle;Signal;HPM_P1;HPM_P2
2020/12/07 00:01:48;;;;;;;7.07;5.22;;;6.20;99.90;;;;;;5068444;28;20025;-87
2020/12/07 00:04:14;;;;;;;5.80;4.57;;;6.20;99.90;;;;;;5050996;28;20017;-87
2020/12/07 00:06:40;;;;;;;5.53;4.85;;;6.30;99.90;;;;;;5048438;28;20023;-86
2020/12/07 00:09:06;;;;;;;6.70;5.00;;;6.30;99.90;;;;;;5053392;28;20033;-86
2020/12/07 00:11:33;;;;;;;8.90;6.57;;;6.20;99.90;;;;;;5051071;28;20451;-87
2020/12/07 00:13:59;;;;;;;8.98;6.43;;;6.20;99.90;;;;;;5044109;28;20053;-87
2020/12/07 00:16:26;;;;;;;8.90;5.82;;;6.30;99.90;;;;;;5047897;28;20498;-86
2020/12/07 00:18:52;;;;;;;7.25;5.82;;;6.20;99.90;;;;;;5049406;28;20439;-86
2020/12/07 00:21:17;;;;;;;8.77;5.97;;;6.30;99.90;;;;;;5045686;28;20083;-87
2020/12/07 00:23:43;;;;;;;7.47;5.78;;;6.30;99.90;;;;;;5037817;28;20017;-86
2020/12/07 00:26:10;;;;;;;6.55;5.18;;;6.20;99.90;;;;;;5067757;28;20140;-86
2020/12/07 00:28:39;;;;;;;7.10;5.32;;;6.10;99.90;;;;;;5051236;28;20045;-85
2020/12/07 00:31:06;;;;;;;7.63;5.78;;;6.10;99.90;;;;;;5052773;28;20029;-86
2020/12/07 00:33:32;;;;;;;7.60;5.40;;;6.10;99.90;;;;;;5053082;28;20061;-85
2020/12/07 00:35:57;;;;;;;6.32;5.20;;;6.10;99.90;;;;;;5049548;28;20028;-86
2020/12/07 00:38:23;;;;;;;8.70;6.63;;;6.10;99.90;;;;;;5050866;28;20369;-87
2020/12/07 00:40:49;;;;;;;12.55;7.45;;;5.90;99.90;;;;;;5051319;28;20040;-85
2020/12/07 00:43:15;;;;;;;10.88;7.13;;;6.00;99.90;;;;;;5049616;28;20074;-87
2020/12/07 00:45:41;;;;;;;9.38;7.28;;;6.00;99.90;;;;;;5043666;28;20049;-87
2020/12/07 00:48:07;;;;;;;12.48;7.65;;;6.00;99.90;;;;;;5051183;28;20032;-85
2020/12/07 00:50:33;;;;;;;9.80;7.13;;;5.90;99.90;;;;;;5042940;28;20500;-86
2020/12/07 00:52:58;;;;;;;9.90;6.65;;;6.10;99.90;;;;;;5049621;28;20020;-86
2020/12/07 00:55:24;;;;;;;9.18;6.80;;;6.00;99.90;;;;;;5051475;28;20024;-87
2020/12/07 00:57:49;;;;;;;10.15;7.28;;;6.10;99.90;;;;;;5051376;28;20032;-87
2020/12/07 01:00:21;;;;;;;11.50;7.80;;;6.00;99.90;;;;;;5052598;28;20025;-86
2020/12/07 01:02:47;;;;;;;9.68;6.95;;;5.80;99.90;;;;;;5051263;28;20025;-86
2020/12/07 01:05:13;;;;;;;10.20;7.40;;;5.90;99.90;;;;;;5052359;28;20060;-86
2020/12/07 01:07:38;;;;;;;9.40;6.18;;;6.00;99.90;;;;;;5051311;28;20024;-86
2020/12/07 01:10:04;;;;;;;8.88;6.47;;;5.90;99.90;;;;;;5041279;28;20458;-85
2020/12/07 01:12:30;;;;;;;9.05;7.05;;;5.90;99.90;;;;;;5037419;28;20029;-86
2020/12/07 01:14:56;;;;;;;7.82;6.65;;;5.90;99.90;;;;;;5051598;28;20037;-86
2020/12/07 01:17:21;;;;;;;11.35;7.75;;;5.80;99.90;;;;;;5051835;28;20033;-86
2020/12/07 01:19:47;;;;;;;9.32;7.07;;;6.00;99.90;;;;;;5050724;28;20077;-86
2020/12/07 01:22:13;;;;;;;7.65;6.53;;;5.80;99.90;;;;;;5052646;28;20369;-86
2020/12/07 01:24:38;;;;;;;7.93;6.45;;;5.80;99.90;;;;;;5049305;28;20031;-86
2020/12/07 01:27:04;;;;;;;7.63;5.95;;;5.90;99.90;;;;;;5051184;28;20025;-86
2020/12/07 01:29:30;;;;;;;8.85;6.75;;;5.90;99.90;;;;;;5052949;28;20154;-86
2020/12/07 01:31:55;;;;;;;7.93;5.95;;;5.80;99.90;;;;;;5051571;28;20477;-86
2020/12/07 01:34:21;;;;;;;7.38;5.95;;;5.80;99.90;;;;;;5052422;28;20118;-85
2020/12/07 01:36:47;;;;;;;8.75;6.13;;;5.90;99.90;;;;;;5051553;28;20014;-86
2020/12/07 01:39:12;;;;;;;9.85;6.32;;;6.00;99.90;;;;;;5043562;28;20497;-86
2020/12/07 01:41:38;;;;;;;7.00;5.68;;;6.00;99.90;;;;;;5036697;28;20112;-86
2020/12/07 01:44:04;;;;;;;8.38;5.65;;;5.90;99.90;;;;;;5037200;28;20052;-85
2020/12/07 01:46:29;;;;;;;6.95;5.72;;;5.80;99.90;;;;;;5046805;28;20072;-86
2020/12/07 01:48:56;;;;;;;6.38;5.40;;;5.70;99.90;;;;;;5034440;28;20024;-86
2020/12/07 01:51:22;;;;;;;7.05;5.18;;;5.80;99.90;;;;;;5067603;28;20059;-86
2020/12/07 01:53:51;;;;;;;6.85;5.15;;;5.70;99.90;;;;;;5050067;28;20083;-86
2020/12/07 01:56:27;;;;;;;7.15;5.45;;;5.70;99.90;;;;;;5051168;28;20029;-86
2020/12/07 01:58:53;;;;;;;8.27;5.93;;;5.60;99.90;;;;;;5052951;28;20120;-86
2020/12/07 02:01:19;;;;;;;9.23;6.47;;;6.00;99.90;;;;;;5055372;28;20056;-86
2020/12/07 02:03:45;;;;;;;8.25;6.32;;;5.90;99.90;;;;;;5055095;28;20025;-86
2020/12/07 02:06:11;;;;;;;9.20;6.47;;;5.80;99.90;;;;;;5062864;28;20037;-87
2020/12/07 02:08:36;;;;;;;8.35;6.35;;;5.80;99.90;;;;;;5053847;28;20397;-86
2020/12/07 02:11:02;;;;;;;7.68;6.20;;;5.70;99.90;;;;;;5072796;28;20381;-86
2020/12/07 02:13:29;;;;;;;8.13;6.70;;;5.80;99.90;;;;;;5056418;28;20032;-86
2020/12/07 02:15:54;;;;;;;10.75;7.80;;;5.90;99.90;;;;;;5054743;28;20029;-86
2020/12/07 02:18:20;;;;;;;12.68;8.70;;;5.90;99.90;;;;;;5058682;28;20069;-85
2020/12/07 02:20:47;;;;;;;11.50;8.85;;;6.00;99.90;;;;;;5058698;28;20028;-86
2020/12/07 02:23:30;;;;;;;13.07;8.85;;;5.70;99.90;;;;;;5037883;28;20030;-86
2020/12/07 02:25:56;;;;;;;11.93;9.50;;;5.70;99.90;;;;;;5056220;28;20052;-86
2020/12/07 02:28:22;;;;;;;15.82;11.30;;;5.70;99.90;;;;;;5054997;28;20094;-86
2020/12/07 02:30:47;;;;;;;15.07;10.80;;;5.80;99.90;;;;;;5053922;28;20025;-87
2020/12/07 02:33:13;;;;;;;15.82;10.68;;;5.80;99.90;;;;;;5050883;28;20041;-86
2020/12/07 02:35:38;;;;;;;13.80;10.15;;;5.80;99.90;;;;;;5046285;28;20033;-86
2020/12/07 02:38:04;;;;;;;12.82;10.35;;;5.80;99.90;;;;;;5053727;28;20426;-86
2020/12/07 02:40:30;;;;;;;14.13;9.90;;;6.00;99.90;;;;;;5054349;28;20426;-86
2020/12/07 02:42:55;;;;;;;13.50;10.65;;;6.10;99.90;;;;;;5042178;28;20034;-86
2020/12/07 02:45:21;;;;;;;14.73;10.57;;;6.00;99.90;;;;;;5070621;28;20495;-86
2020/12/07 02:47:46;;;;;;;13.23;10.50;;;5.80;99.90;;;;;;5055391;28;20024;-87
2020/12/07 02:50:13;;;;;;;15.13;11.63;;;5.80;99.90;;;;;;5055644;28;20021;-86
2020/12/07 02:52:40;;;;;;;14.00;11.30;;;5.90;99.90;;;;;;5051776;28;20396;-86
2020/12/07 02:55:10;;;;;;;16.83;12.80;;;5.90;99.90;;;;;;5054013;28;20029;-87
2020/12/07 02:57:36;;;;;;;14.57;11.80;;;6.00;99.90;;;;;;5055691;28;20436;-86
2020/12/07 03:00:05;;;;;;;14.95;11.80;;;6.00;99.90;;;;;;5054500;28;20061;-86
2020/12/07 03:02:32;;;;;;;15.32;10.75;;;6.00;99.90;;;;;;5054211;28;20115;-85
2020/12/07 03:04:57;;;;;;;15.80;11.30;;;6.00;99.90;;;;;;5054023;28;20417;-86
2020/12/07 03:07:23;;;;;;;15.32;11.40;;;5.90;99.90;;;;;;5054540;28;20021;-86
2020/12/07 03:09:49;;;;;;;14.80;11.25;;;5.80;99.90;;;;;;5043136;28;20029;-86
2020/12/07 03:12:15;;;;;;;12.10;9.60;;;5.90;99.90;;;;;;5043218;28;20029;-86
2020/12/07 03:14:41;;;;;;;15.95;9.70;;;5.90;99.90;;;;;;5053481;28;20056;-86
2020/12/07 03:17:06;;;;;;;10.70;8.70;;;5.90;99.90;;;;;;5047086;28;20060;-86
2020/12/07 03:19:32;;;;;;;11.23;8.45;;;5.80;99.90;;;;;;5066891;28;20076;-86
2020/12/07 03:21:58;;;;;;;8.45;7.15;;;5.80;99.90;;;;;;5069569;28;20087;-86
2020/12/07 03:24:23;;;;;;;12.48;8.52;;;5.90;99.90;;;;;;5053376;28;20021;-86
2020/12/07 03:26:49;;;;;;;10.57;7.18;;;5.90;99.90;;;;;;5053956;28;20086;-86
2020/12/07 03:29:15;;;;;;;10.10;7.50;;;5.80;99.90;;;;;;5073791;28;20512;-86
2020/12/07 03:31:41;;;;;;;9.10;6.80;;;5.90;99.90;;;;;;5061551;28;20155;-86
2020/12/07 03:34:08;;;;;;;8.25;6.78;;;5.80;99.90;;;;;;5053638;28;20028;-86
2020/12/07 03:36:34;;;;;;;9.00;7.00;;;5.70;99.90;;;;;;5053822;28;20027;-86
2020/12/07 03:39:01;;;;;;;9.93;7.13;;;5.70;99.90;;;;;;5070292;28;20024;-86
2020/12/07 03:41:26;;;;;;;8.93;7.07;;;5.70;99.90;;;;;;5072566;28;20112;-86
2020/12/07 03:43:52;;;;;;;8.23;6.75;;;5.80;99.90;;;;;;5053471;28;20097;-86
2020/12/07 03:46:18;;;;;;;7.82;6.65;;;5.70;99.90;;;;;;5053642;28;20032;-86
2020/12/07 03:48:43;;;;;;;8.23;6.43;;;5.70;99.90;;;;;;5054576;28;20021;-86
2020/12/07 03:51:09;;;;;;;7.13;6.35;;;5.70;99.90;;;;;;5046240;28;20074;-86
2020/12/07 03:53:37;;;;;;;9.02;7.18;;;5.70;99.90;;;;;;5049699;28;20520;-86
2020/12/07 03:56:04;;;;;;;8.10;6.63;;;5.70;99.90;;;;;;5047875;28;20029;-86
2020/12/07 03:58:30;;;;;;;9.07;6.80;;;5.70;99.90;;;;;;5053602;28;20071;-86
2020/12/07 04:00:56;;;;;;;8.52;6.90;;;5.80;99.90;;;;;;5052536;28;20485;-86
2020/12/07 04:03:22;;;;;;;9.02;7.05;;;5.70;99.90;;;;;;5052585;28;20385;-86
2020/12/07 04:06:12;;;;;;;7.15;6.22;;;5.60;99.90;;;;;;5054991;28;20069;-86
2020/12/07 04:08:38;;;;;;;10.00;7.60;;;5.60;99.90;;;;;;5035738;28;20028;-87
2020/12/07 04:11:04;;;;;;;7.88;6.70;;;5.50;99.90;;;;;;5069365;28;20123;-86
2020/12/07 04:13:30;;;;;;;8.05;6.63;;;5.70;99.90;;;;;;5052466;28;20032;-86
2020/12/07 04:15:56;;;;;;;8.95;7.05;;;5.60;99.90;;;;;;5052569;28;20560;-86
2020/12/07 04:18:22;;;;;;;10.48;7.10;;;5.80;99.90;;;;;;5052090;28;20021;-86
2020/12/07 04:20:47;;;;;;;8.13;7.30;;;5.70;99.90;;;;;;5041677;28;20397;-86
2020/12/07 04:23:13;;;;;;;8.93;7.07;;;5.70;99.90;;;;;;5052192;28;20502;-86
2020/12/07 04:25:39;;;;;;;8.50;6.57;;;5.60;99.90;;;;;;5052321;28;20055;-86
2020/12/07 04:28:04;;;;;;;7.70;6.85;;;5.60;99.90;;;;;;5052288;28;20021;-86
2020/12/07 04:30:30;;;;;;;10.68;7.25;;;5.60;99.90;;;;;;5052655;28;20025;-87
2020/12/07 04:32:56;;;;;;;9.68;6.82;;;5.50;99.90;;;;;;5052063;28;20025;-86
2020/12/07 04:35:21;;;;;;;10.30;7.75;;;5.60;99.90;;;;;;5051827;28;20048;-86
2020/12/07 04:37:47;;;;;;;11.68;8.68;;;5.50;99.90;;;;;;5053724;28;20428;-86
2020/12/07 04:40:13;;;;;;;16.40;10.88;;;5.50;99.90;;;;;;5053830;28;20550;-86
2020/12/07 04:42:41;;;;;;;14.98;11.25;;;5.40;99.90;;;;;;5052216;28;20492;-84
2020/12/07 04:45:08;;;;;;;15.65;11.07;;;5.40;99.90;;;;;;5052676;28;20017;-86
2020/12/07 04:47:36;;;;;;;10.23;8.18;;;5.50;99.90;;;;;;5051850;28;20048;-86
2020/12/07 04:50:05;;;;;;;9.38;6.68;;;5.50;99.90;;;;;;5034276;28;20035;-86
2020/12/07 04:52:32;;;;;;;9.18;7.82;;;5.50;99.90;;;;;;5039707;28;20111;-86
2020/12/07 04:55:01;;;;;;;12.85;8.98;;;5.50;99.90;;;;;;5053051;28;20052;-87
2020/12/07 04:57:28;;;;;;;10.25;8.60;;;5.60;99.90;;;;;;5052691;28;20029;-86
2020/12/07 04:59:55;;;;;;;10.02;6.53;;;5.60;99.90;;;;;;5040105;28;20112;-86
2020/12/07 05:02:21;;;;;;;10.18;7.35;;;5.40;99.90;;;;;;5033484;28;20497;-86
2020/12/07 05:04:47;;;;;;;9.18;7.53;;;5.30;99.90;;;;;;5072558;28;20048;-86
2020/12/07 05:07:13;;;;;;;9.20;7.18;;;5.20;99.90;;;;;;5053754;28;20025;-86
2020/12/07 05:09:39;;;;;;;8.68;7.25;;;5.20;99.90;;;;;;5051422;28;20024;-86
2020/12/07 05:14:56;;;;;;;8.02;6.82;;;5.00;99.90;;;;;;5049620;28;20033;-86
2020/12/07 05:17:22;;;;;;;8.05;6.78;;;5.00;99.90;;;;;;5053158;28;20031;-86
2020/12/07 05:19:49;;;;;;;7.03;6.00;;;5.00;99.90;;;;;;5052668;28;20029;-86
2020/12/07 05:22:18;;;;;;;8.13;6.53;;;4.90;99.90;;;;;;5045718;28;20017;-86
2020/12/07 05:24:50;;;;;;;8.05;6.45;;;5.00;99.90;;;;;;5064405;28;20492;-86
2020/12/07 05:27:19;;;;;;;7.30;6.47;;;5.00;99.90;;;;;;5040835;28;20547;-86
2020/12/07 05:30:21;;;;;;;10.68;7.70;;;5.00;99.90;;;;;;5064897;28;20028;-86
2020/12/07 05:32:38;;;;;;;8.70;6.82;;;4.90;99.90;;;;;;5032142;28;20030;-86
2020/12/07 05:35:06;;;;;;;12.95;9.18;;;5.00;99.90;;;;;;5052431;28;20104;-86
2020/12/07 05:37:36;;;;;;;9.75;7.53;;;5.00;99.90;;;;;;5050939;28;20183;-86
2020/12/07 05:40:10;;;;;;;8.27;7.10;;;5.00;99.90;;;;;;5051652;28;20476;-86
2020/12/07 05:42:36;;;;;;;9.70;6.90;;;5.10;99.90;;;;;;5051203;28;20492;-86
2020/12/07 05:45:05;;;;;;;9.10;6.75;;;5.20;99.90;;;;;;5041104;28;20037;-86
2020/12/07 05:47:33;;;;;;;7.97;6.68;;;5.20;99.90;;;;;;5051182;28;20104;-86
2020/12/07 05:50:03;;;;;;;9.98;6.57;;;5.20;99.90;;;;;;5043177;28;20036;-86
2020/12/07 05:52:37;;;;;;;7.95;6.57;;;5.20;99.90;;;;;;5052224;28;20021;-86
2020/12/07 05:55:03;;;;;;;9.38;7.20;;;5.10;99.90;;;;;;5049883;28;20028;-86
2020/12/07 05:57:31;;;;;;;8.57;6.40;;;5.10;99.90;;;;;;5045309;28;20021;-86
2020/12/07 06:00:05;;;;;;;8.60;6.60;;;5.00;99.90;;;;;;5047109;28;20029;-86
2020/12/07 06:02:32;;;;;;;10.20;7.30;;;5.00;99.90;;;;;;5050921;28;20029;-86
2020/12/07 06:05:01;;;;;;;12.00;8.68;;;5.10;99.90;;;;;;5049172;28;20099;-86
2020/12/07 06:07:30;;;;;;;18.65;12.80;;;5.10;99.90;;;;;;5043767;28;20028;-86
2020/12/07 06:09:59;;;;;;;13.27;9.77;;;4.90;99.90;;;;;;5051778;28;20021;-86
2020/12/07 06:12:29;;;;;;;14.20;10.13;;;4.90;99.90;;;;;;5041128;28;20400;-86
2020/12/07 06:14:55;;;;;;;14.90;10.38;;;4.90;99.90;;;;;;5034476;28;20032;-86
2020/12/07 06:17:25;;;;;;;11.95;8.80;;;4.80;99.90;;;;;;5048636;28;20024;-86
2020/12/07 06:19:52;;;;;;;10.13;7.38;;;4.90;99.90;;;;;;5050483;28;20397;-86
2020/12/07 06:22:21;;;;;;;9.32;7.35;;;4.90;99.90;;;;;;5050521;28;20179;-86
2020/12/07 06:24:47;;;;;;;15.30;10.65;;;5.00;99.90;;;;;;5050326;28;20027;-86
2020/12/07 06:27:15;;;;;;;19.92;13.23;;;5.00;99.90;;;;;;5035203;28;20037;-86
2020/12/07 06:29:58;;;;;;;16.83;12.23;;;4.90;99.90;;;;;;5042306;28;20477;-86
2020/12/07 06:32:52;;;;;;;15.95;10.65;;;4.80;99.90;;;;;;5051344;28;20021;-86
2020/12/07 06:35:21;;;;;;;13.35;9.43;;;5.00;99.90;;;;;;5051981;28;20074;-86
2020/12/07 06:37:50;;;;;;;15.75;11.65;;;5.00;99.90;;;;;;5071856;28;20044;-86
2020/12/07 06:40:24;;;;;;;25.00;15.70;;;5.00;99.90;;;;;;5063114;28;20378;-86
2020/12/07 06:42:49;;;;;;;38.00;24.88;;;4.80;99.90;;;;;;5050226;28;20159;-85
2020/12/07 06:45:33;;;;;;;27.30;18.10;;;4.90;99.90;;;;;;5042542;28;20108;-86
2020/12/07 06:48:09;;;;;;;29.42;20.23;;;4.80;99.90;;;;;;5048780;28;20029;-85
2020/12/07 06:50:40;;;;;;;27.40;17.15;;;4.70;99.90;;;;;;5053557;28;20028;-86
2020/12/07 06:53:41;;;;;;;27.98;18.02;;;4.70;99.90;;;;;;5049024;28;20021;-86
2020/12/07 06:56:08;;;;;;;25.65;14.60;;;4.80;99.90;;;;;;5053468;28;20314;-86
2020/12/07 06:58:39;;;;;;;22.65;13.40;;;4.90;99.90;;;;;;5054303;28;20032;-86
2020/12/07 07:01:22;;;;;;;19.98;12.93;;;5.00;99.90;;;;;;5053720;28;20029;-86
2020/12/07 07:03:49;;;;;;;18.77;12.25;;;5.10;99.90;;;;;;5035736;28;20030;-86
2020/12/07 07:06:21;;;;;;;16.67;11.25;;;5.10;99.90;;;;;;5050299;28;20524;-86
2020/12/07 07:08:51;;;;;;;14.25;9.68;;;5.00;99.90;;;;;;5054920;28;20013;-86
2020/12/07 07:11:17;;;;;;;11.70;8.02;;;5.10;99.90;;;;;;5046404;28;20029;-86
2020/12/07 07:13:50;;;;;;;9.18;8.05;;;5.10;99.90;;;;;;5038931;28;20052;-86
2020/12/07 07:16:18;;;;;;;9.90;7.75;;;5.00;99.90;;;;;;5054416;28;20025;-85
2020/12/07 07:18:45;;;;;;;10.35;7.30;;;5.00;99.90;;;;;;5053626;28;20028;-86
2020/12/07 07:21:10;;;;;;;11.32;8.35;;;5.00;99.90;;;;;;5053982;28;20021;-86
2020/12/07 07:23:38;;;;;;;8.98;6.97;;;5.10;99.90;;;;;;5051220;28;20101;-86
2020/12/07 07:26:14;;;;;;;13.43;8.57;;;5.20;99.90;;;;;;5049182;28;20033;-86
2020/12/07 07:28:40;;;;;;;13.63;8.38;;;5.20;99.90;;;;;;5053253;28;20481;-86
2020/12/07 07:31:07;;;;;;;17.40;10.18;;;5.20;99.90;;;;;;5042393;28;20025;-85
2020/12/07 07:33:33;;;;;;;17.67;10.43;;;5.20;99.90;;;;;;5053559;28;20025;-85
2020/12/07 07:35:59;;;;;;;12.98;9.57;;;5.20;99.90;;;;;;5042656;28;20604;-86
2020/12/07 07:38:31;;;;;;;13.30;8.73;;;5.30;99.90;;;;;;5053676;28;20041;-88
2020/12/07 07:40:56;;;;;;;14.55;9.35;;;5.40;99.90;;;;;;5055321;28;20079;-89
2020/12/07 07:43:25;;;;;;;18.02;11.68;;;5.40;99.90;;;;;;5052145;28;20021;-87
2020/12/07 07:45:57;;;;;;;18.02;10.07;;;5.60;99.90;;;;;;5052007;28;20021;-85
2020/12/07 08:15:48;;;;;;;11.35;8.23;;;11.70;99.90;;;;;;5053445;28;20031;-86
2020/12/07 08:18:20;;;;;;;15.68;11.27;;;12.80;99.90;;;;;;5053326;28;20048;-86
2020/12/07 08:20:52;;;;;;;14.50;9.32;;;12.70;99.90;;;;;;5045326;28;20024;-87
2020/12/07 08:23:26;;;;;;;7.10;5.55;;;14.70;99.90;;;;;;5053601;28;20074;-86
2020/12/07 08:25:52;;;;;;;13.38;9.63;;;18.00;99.90;;;;;;5052503;28;20096;-87
2020/12/07 08:28:30;;;;;;;16.35;9.43;;;19.40;99.90;;;;;;5051718;28;20013;-88
2020/12/07 08:31:09;;;;;;;18.98;12.82;;;16.80;99.90;;;;;;5051619;28;20108;-88
2020/12/07 08:33:39;;;;;;;16.50;11.60;;;19.20;99.90;;;;;;5052374;28;20025;-87
2020/12/07 08:36:06;;;;;;;15.85;10.90;;;18.50;99.90;;;;;;5052814;28;20524;-89
2020/12/07 08:38:38;;;;;;;18.15;13.32;;;15.90;99.90;;;;;;5051458;28;20083;-89
2020/12/07 08:41:09;;;;;;;20.85;15.43;;;13.80;99.90;;;;;;5048818;28;20096;-87
2020/12/07 08:43:35;;;;;;;23.42;17.35;;;12.30;99.90;;;;;;5042418;28;20017;-88
2020/12/07 08:46:01;;;;;;;18.27;14.70;;;11.30;99.90;;;;;;5051831;28;20111;-87
2020/12/07 08:48:27;;;;;;;16.88;13.35;;;10.90;99.90;;;;;;5051117;28;20485;-86
2020/12/07 08:50:54;;;;;;;20.13;15.02;;;10.40;99.90;;;;;;5043574;28;20036;-87
2020/12/07 08:53:20;;;;;;;25.58;16.17;;;9.90;99.90;;;;;;5068097;28;20062;-87
2020/12/07 08:55:47;;;;;;;20.05;14.35;;;9.80;99.90;;;;;;5051808;28;20065;-89
2020/12/07 08:58:12;;;;;;;20.98;14.98;;;9.60;99.90;;;;;;5051019;28;20412;-84
2020/12/07 09:00:38;;;;;;;20.45;14.27;;;9.40;99.90;;;;;;5050978;28;20024;-82
2020/12/07 09:03:04;;;;;;;19.48;14.68;;;9.50;99.90;;;;;;5054065;28;20031;-90
2020/12/07 09:05:30;;;;;;;20.23;14.57;;;9.60;99.90;;;;;;5035474;28;20042;-85
2020/12/07 09:09:28;;;;;;;19.73;15.65;;;10.10;99.90;;;;;;5110263;27;20340;-82
2020/12/07 09:11:54;;;;;;;17.15;12.32;;;9.70;99.90;;;;;;5110267;28;20024;-84
2020/12/07 09:14:19;;;;;;;27.30;15.68;;;9.70;99.90;;;;;;5090949;28;20028;-86
2020/12/07 09:16:45;;;;;;;20.33;14.10;;;8.60;99.90;;;;;;5089888;28;20063;-87
2020/12/07 09:19:10;;;;;;;18.27;13.27;;;8.60;99.90;;;;;;5090151;28;20034;-88
2020/12/07 09:21:36;;;;;;;18.95;12.95;;;8.20;99.90;;;;;;5089690;28;20040;-90
2020/12/07 09:24:02;;;;;;;23.35;14.65;;;8.40;99.90;;;;;;5089516;28;20032;-90
2020/12/07 09:26:27;;;;;;;20.70;16.17;;;8.30;99.90;;;;;;5089339;28;20046;-90
2020/12/07 09:28:53;;;;;;;25.75;19.95;;;8.40;99.90;;;;;;5088818;28;20029;-90
2020/12/07 09:31:19;;;;;;;18.35;13.10;;;8.60;99.90;;;;;;5101276;28;20028;-90
2020/12/07 09:33:44;;;;;;;20.25;14.25;;;8.50;99.90;;;;;;5102064;28;20511;-89
2020/12/07 09:36:10;;;;;;;20.80;13.55;;;9.00;99.90;;;;;;5088962;28;20607;-88
2020/12/07 09:38:35;;;;;;;19.73;12.88;;;9.30;99.90;;;;;;5089218;28;20035;-88
2020/12/07 09:41:01;;;;;;;16.73;12.80;;;9.60;99.90;;;;;;5088967;28;20024;-90
2020/12/07 09:43:27;;;;;;;16.15;10.60;;;9.90;99.90;;;;;;5101718;28;20400;-89
2020/12/07 09:45:53;;;;;;;15.02;11.18;;;10.40;99.90;;;;;;5108860;28;20078;-89
2020/12/07 09:48:18;;;;;;;14.85;10.63;;;10.80;99.90;;;;;;5108889;28;20449;-87
2020/12/07 09:50:44;;;;;;;14.27;10.82;;;11.20;99.90;;;;;;5110199;28;20027;-92
2020/12/07 09:53:12;;;;;;;14.48;10.60;;;11.80;99.90;;;;;;5109237;28;20487;-90
2020/12/07 09:55:38;;;;;;;13.07;9.82;;;11.90;99.90;;;;;;5107799;28;20028;-90
2020/12/07 09:58:03;;;;;;;16.70;12.05;;;12.00;99.90;;;;;;5088629;28;20024;-90
2020/12/07 10:00:29;;;;;;;18.40;13.35;;;11.90;99.90;;;;;;5088875;28;20028;-90
2020/12/07 10:02:55;;;;;;;15.27;11.45;;;12.30;99.90;;;;;;5088809;28;20020;-89
2020/12/07 10:05:20;;;;;;;16.38;12.13;;;12.50;99.90;;;;;;5089099;28;20068;-91
2020/12/07 10:07:47;;;;;;;20.00;11.15;;;12.40;99.90;;;;;;5088599;28;20076;-89
2020/12/07 10:10:12;;;;;;;14.80;11.27;;;12.00;99.90;;;;;;5101284;28;20039;-89
2020/12/07 10:12:38;;;;;;;12.27;10.20;;;12.10;99.90;;;;;;5088421;28;20055;-89
2020/12/07 10:15:06;;;;;;;18.42;13.77;;;12.10;99.90;;;;;;5087865;28;20024;-92
2020/12/07 10:17:33;;;;;;;15.45;11.70;;;11.50;99.90;;;;;;5088729;28;20570;-93
2020/12/07 10:19:58;;;;;;;16.70;13.10;;;10.90;99.90;;;;;;5079790;28;20025;-93
2020/12/07 10:22:24;;;;;;;14.63;12.25;;;10.40;99.90;;;;;;5077862;28;20081;-91
2020/12/07 10:24:50;;;;;;;14.20;11.65;;;10.10;99.90;;;;;;5089502;28;20020;-92
2020/12/07 10:27:15;;;;;;;14.68;12.23;;;10.20;99.90;;;;;;5093980;28;20569;-87
2020/12/07 10:29:41;;;;;;;13.63;11.68;;;10.10;99.90;;;;;;5094097;28;20081;-87
2020/12/07 10:32:07;;;;;;;16.85;11.50;;;10.00;99.90;;;;;;5093754;28;20116;-89
2020/12/07 10:34:32;;;;;;;15.68;11.70;;;10.30;99.90;;;;;;5079347;28;20115;-89
2020/12/07 10:36:58;;;;;;;14.10;11.75;;;10.70;99.90;;;;;;5092265;28;20021;-88
2020/12/07 10:39:24;;;;;;;14.23;11.88;;;11.00;99.90;;;;;;5082086;28;20025;-87
2020/12/07 10:41:50;;;;;;;16.15;11.10;;;11.40;99.90;;;;;;5073724;28;20042;-88
2020/12/07 10:44:15;;;;;;;26.10;19.80;;;11.80;99.90;;;;;;5082626;28;20020;-90
2020/12/07 10:46:41;;;;;;;16.73;14.15;;;12.40;99.90;;;;;;5090198;28;20034;-90
2020/12/07 10:49:07;;;;;;;26.27;18.52;;;13.00;99.90;;;;;;5093096;28;20403;-90
2020/12/07 10:51:33;;;;;;;11.88;9.45;;;13.40;99.90;;;;;;5092542;28;20031;-90
2020/12/07 10:54:01;;;;;;;11.80;8.52;;;14.00;99.90;;;;;;5088176;28;20017;-89
2020/12/07 10:56:27;;;;;;;9.90;8.35;;;14.80;99.90;;;;;;5093788;28;20065;-89
2020/12/07 10:58:54;;;;;;;9.75;8.25;;;14.80;99.90;;;;;;5088781;28;20065;-89
2020/12/07 11:01:19;;;;;;;10.90;8.95;;;14.60;99.90;;;;;;5078903;28;20028;-92
2020/12/07 11:03:47;;;;;;;9.95;8.75;;;14.50;99.90;;;;;;5076400;28;20024;-92
2020/12/07 11:06:15;;;;;;;8.70;7.80;;;14.80;99.90;;;;;;5094600;28;20039;-92
2020/12/07 11:08:55;;;;;;;9.48;8.02;;;17.60;99.90;;;;;;5080859;28;20048;-92
2020/12/07 11:11:21;;;;;;;10.93;7.53;;;21.10;99.90;;;;;;5079950;28;20059;-93
2020/12/07 11:13:48;;;;;;;6.47;5.78;;;25.40;99.90;;;;;;5073943;28;20027;-87
2020/12/07 11:16:15;;;;;;;7.18;5.88;;;21.90;99.90;;;;;;5074181;28;20483;-89
2020/12/07 11:18:41;;;;;;;7.18;6.47;;;18.40;99.90;;;;;;5091048;28;20178;-94
2020/12/07 11:21:12;;;;;;;9.40;8.40;;;16.70;99.90;;;;;;5098392;28;20024;-96
2020/12/07 11:23:40;;;;;;;8.43;7.53;;;16.50;99.90;;;;;;5096081;28;20024;-96
2020/12/07 11:26:06;;;;;;;8.70;7.40;;;17.30;99.90;;;;;;5094859;28;20028;-93
2020/12/07 11:28:32;;;;;;;6.15;5.45;;;20.30;99.90;;;;;;5094329;28;20488;-95
2020/12/07 11:30:57;;;;;;;5.32;4.25;;;21.50;99.90;;;;;;5083003;28;20024;-94
2020/12/07 11:33:23;;;;;;;5.03;4.53;;;23.30;99.90;;;;;;5074204;28;20082;-95
2020/12/07 11:35:49;;;;;;;5.07;4.57;;;24.60;99.90;;;;;;5074349;28;20094;-95
2020/12/07 11:38:18;;;;;;;7.18;5.38;;;26.10;99.90;;;;;;5074338;28;20031;-95
2020/12/07 11:41:16;;;;;;;6.22;5.15;;;25.70;99.90;;;;;;5074016;28;20024;-89
2020/12/07 11:43:50;;;;;;;3.70;3.13;;;25.80;99.90;;;;;;5082587;28;20523;-95
2020/12/07 11:46:17;;;;;;;4.10;3.55;;;25.30;99.90;;;;;;5093508;28;20077;-89
2020/12/07 11:48:43;;;;;;;6.15;3.88;;;24.90;99.90;;;;;;5093660;28;20128;-88
2020/12/07 11:51:09;;;;;;;3.65;3.35;;;24.20;99.90;;;;;;5078964;28;20115;-89
2020/12/07 11:53:34;;;;;;;4.18;3.17;;;24.00;99.90;;;;;;5087640;28;20024;-94
2020/12/07 11:56:00;;;;;;;5.05;4.00;;;23.40;99.90;;;;;;5073605;28;20029;-90
2020/12/07 11:58:25;;;;;;;4.82;3.20;;;24.30;99.90;;;;;;5098399;28;20036;-92
2020/12/07 12:00:51;;;;;;;2.83;2.63;;;23.50;99.90;;;;;;5093824;28;20115;-92
2020/12/07 12:03:17;;;;;;;3.83;3.40;;;22.70;99.90;;;;;;5086960;28;20032;-90
2020/12/07 12:05:42;;;;;;;4.05;3.60;;;23.20;99.90;;;;;;5080729;28;20553;-92
2020/12/07 12:08:08;;;;;;;3.75;3.38;;;22.70;99.90;;;;;;5072778;28;20040;-95
2020/12/07 12:10:33;;;;;;;8.18;3.60;;;23.70;99.90;;;;;;5073036;28;20032;-91
2020/12/07 12:12:59;;;;;;;4.22;3.70;;;24.30;99.90;;;;;;5073294;28;20032;-90
2020/12/07 12:15:25;;;;;;;3.40;2.80;;;23.90;99.90;;;;;;5089655;28;20051;-90
2020/12/07 12:17:50;;;;;;;2.90;2.63;;;23.80;99.90;;;;;;5080354;28;20024;-90
2020/12/07 12:20:16;;;;;;;3.30;3.00;;;23.10;99.90;;;;;;5092226;28;20392;-87
2020/12/07 12:22:41;;;;;;;3.33;3.03;;;24.30;99.90;;;;;;5092598;28;20057;-85
2020/12/07 12:25:07;;;;;;;3.95;2.90;;;25.30;99.90;;;;;;5089968;28;20105;-86
2020/12/07 12:27:33;;;;;;;2.47;2.20;;;25.70;99.90;;;;;;5091906;28;20391;-88
2020/12/07 12:29:58;;;;;;;2.95;2.30;;;25.70;99.90;;;;;;5086796;28;20027;-87
2020/12/07 12:32:24;;;;;;;4.68;2.60;;;24.60;99.90;;;;;;5075603;28;20024;-87
2020/12/07 12:34:49;;;;;;;3.85;2.45;;;24.00;99.90;;;;;;5076703;28;20054;-87
2020/12/07 12:37:15;;;;;;;2.30;2.10;;;23.30;99.90;;;;;;5091308;28;20020;-87
2020/12/07 12:39:41;;;;;;;3.35;2.05;;;23.50;99.90;;;;;;5091378;28;20033;-87
2020/12/07 12:42:06;;;;;;;3.38;2.60;;;22.70;99.90;;;;;;5090552;28;20514;-86
2020/12/07 12:44:32;;;;;;;3.22;2.78;;;21.80;99.90;;;;;;5089451;28;20052;-87
2020/12/07 12:46:57;;;;;;;2.63;2.42;;;21.60;99.90;;;;;;5091102;28;20497;-86
2020/12/07 12:49:23;;;;;;;3.85;2.92;;;22.10;99.90;;;;;;5090404;28;20032;-89
2020/12/07 12:51:49;;;;;;;3.15;2.85;;;22.20;99.90;;;;;;5087458;28;20498;-87
2020/12/07 12:54:15;;;;;;;4.30;3.08;;;22.30;99.90;;;;;;5081777;28;20027;-86
2020/12/07 12:56:41;;;;;;;3.50;3.20;;;22.20;99.90;;;;;;5092280;28;20032;-87
2020/12/07 12:59:07;;;;;;;3.53;3.22;;;21.20;99.90;;;;;;5090428;28;20118;-87
2020/12/07 13:01:39;;;;;;;3.72;3.25;;;20.80;99.90;;;;;;5091267;28;20031;-87
2020/12/07 13:04:05;;;;;;;3.80;3.22;;;21.80;99.90;;;;;;5089267;28;20531;-87
2020/12/07 13:06:35;;;;;;;3.85;3.33;;;21.80;99.90;;;;;;5090525;28;20028;-87
2020/12/07 13:09:03;;;;;;;4.65;3.78;;;19.90;99.90;;;;;;5091871;28;20054;-87
2020/12/07 13:11:30;;;;;;;5.35;4.07;;;20.70;99.90;;;;;;5090820;28;20020;-87
2020/12/07 13:13:56;;;;;;;5.07;4.18;;;21.20;99.90;;;;;;5091594;28;20484;-87
2020/12/07 13:16:25;;;;;;;5.13;4.03;;;21.00;99.90;;;;;;5091024;28;20016;-87
2020/12/07 13:18:53;;;;;;;4.43;4.00;;;21.10;99.90;;;;;;5075784;28;20051;-87